createdAt,value
2023-05-11T00:01:35.227Z,19509.00
2023-05-11T00:04:03.386Z,19480.53
2023-05-11T00:06:33.211Z,19454.13
2023-05-11T00:09:01.330Z,19500.88
2023-05-11T00:11:29.428Z,19492.75
2023-05-11T00:13:57.557Z,19464.28
2023-05-11T00:16:25.822Z,19492.75
2023-05-11T00:18:54.293Z,19474.44
2023-05-11T00:21:22.807Z,19439.91
2023-05-11T00:23:52.381Z,19466.31
2023-05-11T00:26:21.166Z,19482.56
2023-05-11T00:28:49.247Z,19470.38
2023-05-11T00:31:17.343Z,19468.34
2023-05-11T00:33:45.487Z,19446.00
2023-05-11T00:36:13.559Z,19431.78
2023-05-11T00:38:41.750Z,19488.69
2023-05-11T00:41:11.286Z,19456.16
2023-05-11T00:43:39.444Z,19468.34
2023-05-11T00:46:07.910Z,19439.91
2023-05-11T00:48:36.133Z,19431.78
2023-05-11T00:51:05.406Z,19435.84
2023-05-11T00:53:33.650Z,19511.03
2023-05-11T00:56:02.455Z,19456.16
2023-05-11T00:58:32.953Z,19443.97
2023-05-11T01:01:01.329Z,19458.19
2023-05-11T01:03:29.754Z,19452.09
2023-05-11T01:06:11.587Z,19452.09
2023-05-11T01:08:49.039Z,19441.94
2023-05-11T01:11:32.195Z,19419.59
2023-05-11T01:14:13.715Z,19419.59
2023-05-11T01:16:47.243Z,19415.50
2023-05-11T01:19:40.336Z,19439.91
2023-05-11T01:22:29.870Z,19427.72
2023-05-11T01:25:14.226Z,19423.66
2023-05-11T01:28:09.886Z,19439.91
2023-05-11T01:30:49.943Z,19462.25
2023-05-11T01:33:25.984Z,19425.69
2023-05-11T01:36:04.858Z,19443.97
2023-05-11T01:38:38.418Z,19417.56
2023-05-11T01:41:15.614Z,19425.69
2023-05-11T01:43:48.416Z,19441.94
2023-05-11T01:46:19.144Z,19380.97
2023-05-11T01:48:52.509Z,19403.31
2023-05-11T01:51:21.743Z,19446.00
2023-05-11T01:53:53.327Z,19378.94
2023-05-11T01:56:23.675Z,19395.19
2023-05-11T01:58:53.845Z,19374.88
2023-05-11T02:01:25.779Z,19376.91
2023-05-11T02:03:56.261Z,19385.03
2023-05-11T02:06:27.994Z,19389.09
2023-05-11T02:08:59.464Z,19383.00
2023-05-11T02:11:30.215Z,19399.25
2023-05-11T02:14:00.220Z,19409.41
2023-05-11T02:16:33.241Z,19358.63
2023-05-11T02:19:01.807Z,19324.06
2023-05-11T02:21:33.416Z,19350.50
2023-05-11T02:24:05.154Z,19342.34
2023-05-11T02:26:33.602Z,19348.47
2023-05-11T02:29:02.098Z,19346.44
2023-05-11T02:31:37.478Z,19346.44
2023-05-11T02:34:14.889Z,19352.53
2023-05-11T02:36:44.649Z,19358.63
2023-05-11T02:39:19.374Z,19346.44
2023-05-11T02:41:50.786Z,19348.47
2023-05-11T02:44:21.211Z,19328.13
2023-05-11T02:46:55.488Z,19338.28
2023-05-11T02:49:28.541Z,19299.69
2023-05-11T02:52:01.065Z,19309.84
2023-05-11T02:54:30.436Z,19309.84
2023-05-11T02:56:59.548Z,19275.31
2023-05-11T02:59:28.785Z,19291.56
2023-05-11T03:01:59.964Z,19307.81
2023-05-11T03:04:28.246Z,19334.22
2023-05-11T03:06:56.915Z,19250.91
2023-05-11T03:09:25.129Z,19285.47
2023-05-11T03:11:53.354Z,19283.44
2023-05-11T03:14:22.683Z,19273.28
2023-05-11T03:16:52.045Z,19240.75
2023-05-11T03:19:21.938Z,19236.69
2023-05-11T03:21:53.396Z,19261.06
2023-05-11T03:24:22.337Z,19248.88
2023-05-11T03:26:52.683Z,19303.75
2023-05-11T03:29:23.081Z,19307.81
2023-05-11T03:31:51.466Z,19281.41
2023-05-11T03:34:21.068Z,19320.00
2023-05-11T03:36:51.578Z,19350.50
2023-05-11T03:39:22.234Z,19330.16
2023-05-11T03:41:53.752Z,19352.53
2023-05-11T03:44:23.659Z,19342.34
2023-05-11T03:46:53.279Z,19346.44
2023-05-11T03:49:23.482Z,19338.28
2023-05-11T03:51:51.875Z,19307.81
2023-05-11T03:54:20.324Z,19309.84
2023-05-11T03:56:48.526Z,19338.28
2023-05-11T03:59:17.605Z,19338.28
2023-05-11T04:01:46.261Z,19311.88
2023-05-11T04:04:14.471Z,19368.78
2023-05-11T04:06:44.001Z,19362.69
2023-05-11T04:09:12.777Z,19364.72
2023-05-11T04:11:41.027Z,19350.50
2023-05-11T04:14:09.125Z,19374.88
2023-05-11T04:16:37.256Z,19342.34
2023-05-11T04:19:06.296Z,19383.00
2023-05-11T04:21:34.437Z,19383.00
2023-05-11T04:24:04.346Z,19407.38
2023-05-11T04:26:32.473Z,19354.56
2023-05-11T04:29:00.601Z,19393.16
2023-05-11T04:31:30.350Z,19364.72
2023-05-11T04:33:58.483Z,19366.75
2023-05-11T04:36:26.688Z,19370.81
2023-05-11T04:38:54.924Z,19372.84
2023-05-11T04:41:24.428Z,19411.44
2023-05-11T04:43:52.534Z,19395.19
2023-05-11T04:46:20.808Z,19395.19
2023-05-11T04:48:49.435Z,19441.94
2023-05-11T04:51:17.791Z,19429.75
2023-05-11T04:53:45.993Z,19443.97
2023-05-11T04:56:14.085Z,19466.31
2023-05-11T04:58:43.528Z,19460.22
2023-05-11T05:01:11.712Z,19492.75
2023-05-11T05:03:39.924Z,19506.97
2023-05-11T05:06:08.374Z,19541.50
2023-05-11T05:08:36.566Z,19531.34
2023-05-11T05:11:04.702Z,19561.84
2023-05-11T05:13:32.837Z,19574.03
2023-05-11T05:16:02.225Z,19616.72
2023-05-11T05:18:30.419Z,19578.09
2023-05-11T05:20:58.570Z,19628.91
2023-05-11T05:23:26.922Z,19632.97
2023-05-11T05:25:55.136Z,19649.22
2023-05-11T05:28:23.308Z,19635.00
2023-05-11T05:30:51.515Z,19710.19
2023-05-11T05:33:21.065Z,19700.03
2023-05-11T05:35:49.151Z,19740.69
2023-05-11T05:38:17.279Z,19744.75
2023-05-11T05:40:45.388Z,19765.06
2023-05-11T05:43:13.576Z,19787.41
2023-05-11T05:45:41.698Z,19834.16
2023-05-11T05:48:10.200Z,19880.91
2023-05-11T05:50:39.906Z,19923.59
2023-05-11T05:53:08.025Z,19970.34
2023-05-11T05:55:36.218Z,20019.13
2023-05-11T05:58:04.346Z,20051.63
2023-05-11T06:00:32.483Z,20104.47
2023-05-11T06:03:00.867Z,20159.34
2023-05-11T06:05:29.064Z,20218.31
2023-05-11T06:08:09.912Z,20220.34
2023-05-11T06:10:39.170Z,20236.59
2023-05-11T06:13:09.397Z,20301.63
2023-05-11T06:15:37.668Z,20346.34
2023-05-11T06:18:06.623Z,20395.13
2023-05-11T06:20:34.874Z,20470.34
2023-05-11T06:23:04.328Z,20490.66
2023-05-11T06:25:35.358Z,20574.00
2023-05-11T06:28:03.811Z,20569.94
2023-05-11T06:30:31.949Z,20555.72
2023-05-11T06:33:00.137Z,20586.22
2023-05-11T06:35:30.280Z,20557.75
2023-05-11T06:37:58.468Z,20608.56
2023-05-11T06:40:28.179Z,20667.53
2023-05-11T06:42:56.336Z,20704.13
2023-05-11T06:45:24.564Z,20635.00
2023-05-11T06:47:52.731Z,20669.56
2023-05-11T06:50:21.614Z,20681.75
2023-05-11T06:52:50.024Z,20689.88
2023-05-11T06:55:18.144Z,20647.19
2023-05-11T06:57:47.658Z,20614.66
2023-05-11T07:00:17.533Z,20622.81
2023-05-11T07:02:45.882Z,20618.72
2023-05-11T07:05:14.052Z,20596.38
2023-05-11T07:07:42.160Z,20578.09
2023-05-11T07:10:11.631Z,20578.09
2023-05-11T07:12:39.761Z,20525.22
2023-05-11T07:15:10.970Z,20612.63
2023-05-11T07:17:39.098Z,20606.53
2023-05-11T07:20:09.173Z,20588.25
2023-05-11T07:22:37.271Z,20630.94
2023-05-11T07:25:06.048Z,20639.06
2023-05-11T07:27:34.781Z,20622.81
2023-05-11T07:30:03.581Z,20649.22
2023-05-11T07:32:33.688Z,20630.94
2023-05-11T07:35:01.845Z,20643.13
2023-05-11T07:37:30.014Z,20720.38
2023-05-11T07:39:58.107Z,20748.84
2023-05-11T07:42:26.301Z,20828.13
2023-05-11T07:44:54.553Z,20848.44
2023-05-11T07:47:23.429Z,20883.00
2023-05-11T07:49:52.980Z,20874.88
2023-05-11T07:52:21.126Z,20956.19
2023-05-11T07:54:49.214Z,20946.03
2023-05-11T07:57:17.518Z,20976.53
2023-05-11T07:59:45.651Z,21007.00
2023-05-11T08:02:13.872Z,21011.09
2023-05-11T08:04:42.008Z,20992.78
2023-05-11T08:07:11.484Z,20972.47
2023-05-11T08:09:39.668Z,20903.34
2023-05-11T08:12:08.112Z,20941.97
2023-05-11T08:14:36.383Z,20931.78
2023-05-11T08:17:05.619Z,20992.78
2023-05-11T08:19:33.728Z,20950.09
2023-05-11T08:22:02.348Z,21009.03
2023-05-11T08:24:31.781Z,21090.38
2023-05-11T08:27:00.055Z,21141.19
2023-05-11T08:29:28.267Z,21196.09
2023-05-11T08:31:56.458Z,21169.66
2023-05-11T08:34:24.840Z,21104.59
2023-05-11T08:36:55.065Z,21204.22
2023-05-11T08:39:38.890Z,21328.25
2023-05-11T08:42:17.404Z,21419.72
2023-05-11T08:44:46.383Z,21362.81
2023-05-11T08:47:22.874Z,21338.41
2023-05-11T08:49:53.464Z,21287.56
2023-05-11T08:52:22.030Z,21250.97
2023-05-11T08:54:50.345Z,21316.03
2023-05-11T08:57:20.652Z,21324.19
2023-05-11T08:59:50.265Z,21423.81
2023-05-11T09:02:20.746Z,21383.13
2023-05-11T09:04:51.834Z,21336.38
2023-05-11T09:07:20.795Z,21271.31
2023-05-11T09:09:48.991Z,21226.59
2023-05-11T09:12:18.807Z,21183.88
2023-05-11T09:14:47.586Z,21253.00
2023-05-11T09:17:15.738Z,21277.41
2023-05-11T09:20:00.841Z,21336.38
2023-05-11T09:22:31.009Z,21301.81
2023-05-11T09:25:02.394Z,21281.47
2023-05-11T09:27:32.292Z,21234.72
2023-05-11T09:30:13.742Z,21281.47
2023-05-11T09:32:52.873Z,21352.63
2023-05-11T09:35:26.733Z,21389.22
2023-05-11T09:38:05.168Z,21399.41
2023-05-11T09:40:36.663Z,21427.88
2023-05-11T09:43:18.900Z,21387.19
2023-05-11T09:45:48.741Z,21332.31
2023-05-11T09:48:28.508Z,21350.59
2023-05-11T09:51:08.664Z,21316.03
2023-05-11T09:53:40.793Z,21324.19
2023-05-11T09:56:10.963Z,21305.88
2023-05-11T09:58:52.391Z,21301.81
2023-05-11T10:01:30.726Z,21358.75
2023-05-11T10:04:09.602Z,21368.91
2023-05-11T10:06:52.838Z,21490.91
2023-05-11T10:09:25.932Z,21488.88
2023-05-11T10:11:56.452Z,21537.66
2023-05-11T10:14:29.309Z,21539.69
2023-05-11T10:17:00.511Z,21497.00
2023-05-11T10:19:29.389Z,21509.19
2023-05-11T10:21:58.565Z,21531.56
2023-05-11T10:24:28.112Z,21539.69
2023-05-11T10:26:59.086Z,21562.06
2023-05-11T10:29:30.287Z,21533.59
2023-05-11T10:32:00.169Z,21578.31
2023-05-11T10:34:29.932Z,21684.06
2023-05-11T10:37:02.171Z,21661.69
2023-05-11T10:39:31.575Z,21645.44
2023-05-11T10:42:19.277Z,21698.28
2023-05-11T10:45:21.455Z,21791.81
2023-05-11T10:48:27.795Z,21755.22
2023-05-11T10:51:17.973Z,21741.00
2023-05-11T10:54:07.363Z,21785.72
2023-05-11T10:57:08.546Z,21789.78
2023-05-11T11:00:30.690Z,21702.34
2023-05-11T11:03:10.812Z,21680.00
2023-05-11T11:05:39.288Z,21594.59
2023-05-11T11:08:09.645Z,21509.19
2023-05-11T11:10:40.414Z,21509.19
2023-05-11T11:13:11.261Z,21480.72
2023-05-11T11:16:15.588Z,21446.16
2023-05-11T11:18:47.518Z,21427.88
2023-05-11T11:21:42.599Z,21403.47
2023-05-11T11:24:30.824Z,21484.78
2023-05-11T11:26:58.997Z,21549.84
2023-05-11T11:29:28.104Z,21643.38
2023-05-11T11:31:56.372Z,21716.59
2023-05-11T11:34:43.979Z,21684.06
2023-05-11T11:37:13.441Z,21635.25
2023-05-11T11:40:08.858Z,21606.78
2023-05-11T11:42:44.220Z,21553.94
2023-05-11T11:45:33.804Z,21484.78
2023-05-11T11:48:14.131Z,21464.47
2023-05-11T11:50:47.782Z,21519.34
2023-05-11T11:54:07.163Z,21505.13
2023-05-11T11:56:41.266Z,21535.63
2023-05-11T11:59:14.857Z,21576.28
2023-05-11T12:01:46.426Z,21606.78
2023-05-11T12:04:40.644Z,21641.34
2023-05-11T12:07:11.352Z,21647.47
2023-05-11T12:09:42.583Z,21704.38
2023-05-11T12:12:11.948Z,21647.47
2023-05-11T12:14:44.658Z,21736.94
2023-05-11T12:17:16.330Z,21722.69
2023-05-11T12:19:46.519Z,21828.44
2023-05-11T12:22:23.201Z,21802.00
2023-05-11T12:24:51.642Z,21787.75
2023-05-11T12:27:19.852Z,21806.06
2023-05-11T12:29:51.686Z,21834.53
2023-05-11T12:32:28.807Z,21848.75
2023-05-11T12:35:02.347Z,21919.94
2023-05-11T12:37:32.896Z,21970.78
2023-05-11T12:40:01.455Z,22043.97
2023-05-11T12:42:29.579Z,22033.81
2023-05-11T12:44:58.173Z,22019.56
2023-05-11T12:47:26.455Z,22062.28
2023-05-11T12:49:54.749Z,22111.09
2023-05-11T12:52:25.455Z,22056.19
2023-05-11T12:55:00.254Z,22092.78
2023-05-11T12:57:30.955Z,22037.88
2023-05-11T13:00:12.397Z,21956.53
2023-05-11T13:02:51.180Z,21952.47
2023-05-11T13:05:24.507Z,21871.13
2023-05-11T13:07:59.503Z,21785.72
2023-05-11T13:10:29.547Z,21775.56
2023-05-11T13:12:57.781Z,21789.78
2023-05-11T13:15:28.476Z,21738.97
2023-05-11T13:18:02.504Z,21773.53
2023-05-11T13:20:34.235Z,21808.09
2023-05-11T13:23:08.169Z,21842.66
2023-05-11T13:25:54.952Z,21818.25
2023-05-11T13:28:25.137Z,21895.53
2023-05-11T13:31:00.801Z,21879.25
2023-05-11T13:33:29.119Z,21962.63
2023-05-11T13:35:57.285Z,21905.69
2023-05-11T13:38:25.398Z,21887.41
2023-05-11T13:40:54.829Z,21836.56
2023-05-11T13:43:22.972Z,21820.28
2023-05-11T13:45:51.393Z,21814.19
2023-05-11T13:48:19.583Z,21820.28
2023-05-11T13:50:47.715Z,21828.44
2023-05-11T13:53:16.469Z,21812.16
2023-05-11T13:55:44.662Z,21797.94
2023-05-11T13:58:14.137Z,21804.03
2023-05-11T14:00:46.261Z,21741.00
2023-05-11T14:03:20.311Z,21722.69
2023-05-11T14:05:50.671Z,21631.19
2023-05-11T14:08:18.777Z,21549.84
2023-05-11T14:10:46.886Z,21521.41
2023-05-11T14:13:16.586Z,21450.22
2023-05-11T14:15:44.710Z,21411.59
2023-05-11T14:18:13.258Z,21397.38
2023-05-11T14:20:42.187Z,21370.94
2023-05-11T14:23:10.547Z,21366.88
2023-05-11T14:25:38.617Z,21354.66
2023-05-11T14:28:07.336Z,21381.09
2023-05-11T14:30:36.854Z,21377.03
2023-05-11T14:33:05.189Z,21370.94
2023-05-11T14:35:33.505Z,21379.06
2023-05-11T14:38:02.845Z,21342.47
2023-05-11T14:40:31.331Z,21338.41
2023-05-11T14:42:59.464Z,21395.34
2023-05-11T14:45:27.932Z,21385.16
2023-05-11T14:47:57.603Z,21417.69
2023-05-11T14:50:25.916Z,21429.91
2023-05-11T14:52:54.112Z,21442.09
2023-05-11T14:55:22.264Z,21478.69
2023-05-11T14:57:50.498Z,21383.13
2023-05-11T15:00:20.036Z,21387.19
2023-05-11T15:02:48.545Z,21399.41
2023-05-11T15:05:18.530Z,21431.94
2023-05-11T15:07:46.816Z,21377.03
2023-05-11T15:10:14.994Z,21368.91
2023-05-11T15:12:43.114Z,21395.34
2023-05-11T15:15:11.995Z,21381.09
2023-05-11T15:17:40.175Z,21350.59
2023-05-11T15:20:10.148Z,21322.13
2023-05-11T15:22:39.733Z,21301.81
2023-05-11T15:25:08.962Z,21375.00
2023-05-11T15:27:37.322Z,21326.22
2023-05-11T15:30:06.489Z,21370.94
2023-05-11T15:32:34.687Z,21476.66
2023-05-11T15:35:02.927Z,21476.66
2023-05-11T15:37:31.077Z,21448.19
2023-05-11T15:40:00.772Z,21466.50
2023-05-11T15:42:29.071Z,21472.59
2023-05-11T15:44:57.497Z,21454.28
2023-05-11T15:47:25.834Z,21440.06
2023-05-11T15:49:53.963Z,21436.00
2023-05-11T15:52:22.153Z,21401.44
2023-05-11T15:54:50.382Z,21468.53
2023-05-11T15:57:19.984Z,21460.41
2023-05-11T15:59:48.586Z,21413.63
2023-05-11T16:02:16.738Z,21407.53
2023-05-11T16:04:44.973Z,21456.34
2023-05-11T16:07:13.141Z,21368.91
2023-05-11T16:09:41.273Z,21332.31
2023-05-11T16:12:10.174Z,21322.13
2023-05-11T16:14:39.671Z,21326.22
2023-05-11T16:17:08.566Z,21267.25
2023-05-11T16:19:37.482Z,21255.03
2023-05-11T16:22:05.881Z,21244.88
2023-05-11T16:24:34.844Z,21259.13
2023-05-11T16:27:03.127Z,21289.59
2023-05-11T16:32:01.524Z,21301.81
2023-05-11T16:34:30.144Z,21316.03
2023-05-11T16:36:59.317Z,21314.00
2023-05-11T16:39:27.936Z,21322.13
2023-05-11T16:41:56.083Z,21366.88
2023-05-11T16:44:24.805Z,21387.19
2023-05-11T16:46:54.117Z,21387.19
2023-05-11T16:49:24.206Z,21395.34
2023-05-11T16:51:52.645Z,21452.25
2023-05-11T16:54:21.624Z,21431.94
2023-05-11T16:56:49.919Z,21458.38
2023-05-11T16:59:18.121Z,21472.59
2023-05-11T17:01:46.686Z,21529.53
2023-05-11T17:04:15.200Z,21574.25
2023-05-11T17:06:44.831Z,21545.78
2023-05-11T17:09:14.222Z,21602.72
2023-05-11T17:11:42.350Z,21606.78
2023-05-11T17:14:10.438Z,21606.78
2023-05-11T17:16:38.691Z,21616.97
2023-05-11T17:19:07.730Z,21574.25
2023-05-11T17:21:35.941Z,21541.72
2023-05-11T17:24:05.706Z,21523.44
2023-05-11T17:26:43.869Z,21529.53
2023-05-11T17:29:15.850Z,21454.28
2023-05-11T17:31:46.255Z,21429.91
2023-05-11T17:34:14.913Z,21436.00
2023-05-11T17:36:43.180Z,21389.22
2023-05-11T17:39:13.749Z,21354.66
2023-05-11T17:41:41.958Z,21348.56
2023-05-11T17:44:10.225Z,21346.53
2023-05-11T17:46:38.978Z,21273.34
2023-05-11T17:49:07.933Z,21305.88
2023-05-11T17:51:36.361Z,21263.19
2023-05-11T17:54:04.705Z,21275.38
2023-05-11T17:56:34.635Z,21234.72
2023-05-11T17:59:03.210Z,21250.97
2023-05-11T18:01:31.628Z,21250.97
2023-05-11T18:04:01.593Z,21222.53
2023-05-11T18:06:30.511Z,21234.72
2023-05-11T18:09:00.444Z,21220.47
2023-05-11T18:11:29.435Z,21129.00
2023-05-11T18:13:59.001Z,21135.09
2023-05-11T18:16:27.297Z,21114.75
2023-05-11T18:18:56.267Z,21139.16
2023-05-11T18:21:26.662Z,21141.19
2023-05-11T18:23:55.042Z,21084.28
2023-05-11T18:26:23.281Z,21104.59
2023-05-11T18:28:51.416Z,21082.25
2023-05-11T18:31:21.034Z,21035.47
2023-05-11T18:33:50.062Z,21100.53
2023-05-11T18:36:18.252Z,21045.63
2023-05-11T18:38:46.472Z,21037.50
2023-05-11T18:41:14.643Z,21015.16
2023-05-11T18:43:44.716Z,20974.50
2023-05-11T18:46:13.545Z,20982.63
2023-05-11T18:48:43.018Z,20921.63
2023-05-11T18:51:11.738Z,20972.47
2023-05-11T18:53:39.838Z,20935.88
2023-05-11T18:56:07.927Z,20966.34
2023-05-11T18:58:36.332Z,20960.25
2023-05-11T19:01:04.542Z,20923.66
2023-05-11T19:03:32.787Z,20972.47
2023-05-11T19:06:02.572Z,20968.38
2023-05-11T19:08:31.107Z,20933.81
2023-05-11T19:10:59.289Z,20927.72
2023-05-11T19:13:27.428Z,20885.03
2023-05-11T19:15:55.612Z,20925.69
2023-05-11T19:18:23.833Z,20891.13
2023-05-11T19:20:51.980Z,20878.94
2023-05-11T19:23:21.650Z,20874.88
2023-05-11T19:25:49.940Z,20883.00
2023-05-11T19:28:18.562Z,20852.50
2023-05-11T19:30:46.780Z,20842.34
2023-05-11T19:33:15.033Z,20840.31
2023-05-11T19:35:43.238Z,20834.22
2023-05-11T19:38:11.383Z,20909.44
2023-05-11T19:40:45.941Z,20828.13
2023-05-11T19:43:14.387Z,20868.78
2023-05-11T19:45:43.616Z,20872.84
2023-05-11T19:48:12.097Z,20854.53
2023-05-11T19:50:40.370Z,20838.28
2023-05-11T19:53:08.900Z,20850.47
2023-05-11T19:55:37.570Z,20844.38
2023-05-11T19:58:07.349Z,20907.41
2023-05-11T20:00:35.898Z,20868.78
2023-05-11T20:03:04.634Z,20826.09
2023-05-11T20:05:32.779Z,20899.28
2023-05-11T20:08:01.200Z,20842.34
2023-05-11T20:10:29.487Z,20824.06
2023-05-11T20:12:58.071Z,20817.94
2023-05-11T20:15:27.667Z,20866.75
2023-05-11T20:17:55.910Z,20820.00
2023-05-11T20:20:24.415Z,20824.06
2023-05-11T20:22:52.631Z,20809.81
2023-05-11T20:25:21.554Z,20850.47
2023-05-11T20:27:49.772Z,20809.81
2023-05-11T20:30:18.757Z,20791.53
2023-05-11T20:35:19.754Z,20807.78
2023-05-11T20:37:48.132Z,20801.69
2023-05-11T20:40:17.044Z,20850.47
2023-05-11T20:42:45.467Z,20789.50
2023-05-11T20:45:13.750Z,20787.47
2023-05-11T20:47:41.979Z,20840.31
2023-05-11T20:50:12.219Z,20858.59
2023-05-11T20:52:40.375Z,20822.03
2023-05-11T20:55:09.486Z,20785.44
2023-05-11T20:57:37.628Z,20805.75
2023-05-11T21:00:07.950Z,20801.69
2023-05-11T21:02:36.365Z,20777.28
2023-05-11T21:05:04.832Z,20820.00
2023-05-11T21:07:34.379Z,20803.72
2023-05-11T21:10:05.179Z,20761.03
2023-05-11T21:12:33.278Z,20773.22
2023-05-11T21:15:01.502Z,20789.50
2023-05-11T21:17:29.657Z,20750.88
2023-05-11T21:19:57.818Z,20746.81
2023-05-11T21:22:25.923Z,20728.50
2023-05-11T21:24:55.505Z,20704.13
2023-05-11T21:27:23.639Z,20716.31
2023-05-11T21:29:52.428Z,20710.22
2023-05-11T21:32:20.600Z,20736.63
2023-05-11T21:34:48.984Z,20704.13
2023-05-11T21:37:20.195Z,20691.91
2023-05-11T21:39:48.794Z,20728.50
2023-05-11T21:42:18.252Z,20724.44
2023-05-11T21:44:46.386Z,20669.56
2023-05-11T21:47:14.547Z,20712.25
2023-05-11T21:49:42.700Z,20720.38
2023-05-11T21:52:10.825Z,20683.78
2023-05-11T21:54:38.967Z,20655.31
2023-05-11T21:57:07.303Z,20687.84
2023-05-11T21:59:36.802Z,20683.78
2023-05-11T22:02:05.080Z,20700.03
2023-05-11T22:04:33.224Z,20712.25
2023-05-11T22:07:01.890Z,20728.50
2023-05-11T22:09:31.478Z,20704.13
2023-05-11T22:11:59.701Z,20718.34
2023-05-11T22:14:27.932Z,20693.94
2023-05-11T22:16:57.455Z,20659.38
2023-05-11T22:19:26.095Z,20635.00
2023-05-11T22:21:54.294Z,20645.16
2023-05-11T22:24:24.018Z,20630.94
2023-05-11T22:26:53.355Z,20610.59
2023-05-11T22:29:21.653Z,20606.53
2023-05-11T22:31:50.015Z,20604.50
2023-05-11T22:34:21.635Z,20606.53
2023-05-11T22:36:50.086Z,20620.78
2023-05-11T22:39:18.766Z,20584.19
2023-05-11T22:41:46.881Z,20590.28
2023-05-11T22:44:15.057Z,20586.22
2023-05-11T22:46:43.165Z,20578.09
2023-05-11T22:49:11.325Z,20574.00
2023-05-11T22:51:40.815Z,20586.22
2023-05-11T22:54:09.002Z,20555.72
2023-05-11T22:56:39.054Z,20547.59
2023-05-11T22:59:07.869Z,20565.88
2023-05-11T23:01:36.113Z,20511.00
2023-05-11T23:04:04.365Z,20549.63
2023-05-11T23:06:32.581Z,20535.41
2023-05-11T23:09:02.055Z,20541.50
2023-05-11T23:11:30.156Z,20549.63
2023-05-11T23:13:58.321Z,20533.34
2023-05-11T23:16:26.436Z,20539.47
2023-05-11T23:18:55.213Z,20541.50
2023-05-11T23:21:23.361Z,20541.50
2023-05-11T23:23:51.481Z,20490.66
2023-05-11T23:26:20.929Z,20496.78
2023-05-11T23:28:49.032Z,20498.81
2023-05-11T23:31:17.171Z,20515.06
2023-05-11T23:33:45.318Z,20545.56
2023-05-11T23:36:13.425Z,20504.91
2023-05-11T23:38:41.552Z,20504.91
2023-05-11T23:41:09.623Z,20482.53
2023-05-11T23:43:39.080Z,20527.25
2023-05-11T23:46:07.195Z,20496.78
2023-05-11T23:48:35.303Z,20476.44
2023-05-11T23:51:03.477Z,20478.47
2023-05-11T23:53:31.613Z,20537.44
2023-05-11T23:55:59.729Z,20539.47
2023-05-11T23:58:27.925Z,20486.59
